createdAt,value
2023-04-24T00:02:08.027Z,1.30
2023-04-24T00:04:34.743Z,1.40
2023-04-24T00:07:01.397Z,1.30
2023-04-24T00:09:27.999Z,1.23
2023-04-24T00:11:54.990Z,1.20
2023-04-24T00:14:21.504Z,1.37
2023-04-24T00:16:48.110Z,1.40
2023-04-24T00:19:14.597Z,1.37
2023-04-24T00:21:42.072Z,1.37
2023-04-24T00:24:10.013Z,1.30
2023-04-24T00:26:36.605Z,1.27
2023-04-24T00:29:03.188Z,1.13
2023-04-24T00:31:29.700Z,1.20
2023-04-24T00:33:56.215Z,1.30
2023-04-24T00:36:22.699Z,1.30
2023-04-24T00:38:49.290Z,1.20
2023-04-24T00:41:15.855Z,1.40
2023-04-24T00:43:42.471Z,1.13
2023-04-24T00:46:09.051Z,1.30
2023-04-24T00:48:35.563Z,1.20
2023-04-24T00:51:02.154Z,1.23
2023-04-24T00:53:28.667Z,1.30
2023-04-24T00:55:55.249Z,1.23
2023-04-24T00:58:21.806Z,1.30
2023-04-24T01:00:48.563Z,1.30
2023-04-24T01:03:15.358Z,1.30
2023-04-24T01:05:42.450Z,1.40
2023-04-24T01:08:08.955Z,1.10
2023-04-24T01:10:35.488Z,1.10
2023-04-24T01:13:02.041Z,1.23
2023-04-24T01:15:28.589Z,1.30
2023-04-24T01:17:55.152Z,1.20
2023-04-24T01:20:22.102Z,1.30
2023-04-24T01:22:49.120Z,1.30
2023-04-24T01:25:15.761Z,1.30
2023-04-24T01:27:42.284Z,1.30
2023-04-24T01:30:09.336Z,1.30
2023-04-24T01:32:36.109Z,1.43
2023-04-24T01:35:02.896Z,1.30
2023-04-24T01:37:29.423Z,1.33
2023-04-24T01:39:56.163Z,1.20
2023-04-24T01:42:22.795Z,1.30
2023-04-24T01:44:49.310Z,1.30
2023-04-24T01:47:15.854Z,1.10
2023-04-24T01:49:42.725Z,1.20
2023-04-24T01:52:09.441Z,1.37
2023-04-24T01:54:36.152Z,1.23
2023-04-24T01:57:03.616Z,1.30
2023-04-24T01:59:30.156Z,1.23
2023-04-24T02:01:56.736Z,1.40
2023-04-24T02:04:23.473Z,1.17
2023-04-24T02:06:50.178Z,1.50
2023-04-24T02:09:16.856Z,1.20
2023-04-24T02:11:43.377Z,1.20
2023-04-24T02:14:09.913Z,1.20
2023-04-24T02:16:37.079Z,1.23
2023-04-24T02:19:04.046Z,1.30
2023-04-24T02:21:31.715Z,1.30
2023-04-24T02:23:58.615Z,1.20
2023-04-24T02:26:25.293Z,1.20
2023-04-24T02:28:51.883Z,1.30
2023-04-24T02:31:18.456Z,1.27
2023-04-24T02:33:45.017Z,1.17
2023-04-24T02:36:11.534Z,1.17
2023-04-24T02:38:38.067Z,1.20
2023-04-24T02:41:07.205Z,1.20
2023-04-24T02:43:34.319Z,1.30
2023-04-24T02:46:00.929Z,1.27
2023-04-24T02:48:27.450Z,1.20
2023-04-24T02:50:54.136Z,1.10
2023-04-24T02:53:20.694Z,1.30
2023-04-24T02:55:47.322Z,1.20
2023-04-24T02:58:14.129Z,1.10
2023-04-24T03:00:40.869Z,1.10
2023-04-24T03:03:08.095Z,1.20
2023-04-24T03:05:34.895Z,1.10
2023-04-24T03:08:01.476Z,1.20
2023-04-24T03:10:28.030Z,1.10
2023-04-24T03:12:56.026Z,1.13
2023-04-24T03:15:22.592Z,1.20
2023-04-24T03:17:49.221Z,1.20
2023-04-24T03:20:16.934Z,1.10
2023-04-24T03:22:43.571Z,1.10
2023-04-24T03:25:10.592Z,1.23
2023-04-24T03:27:37.322Z,1.00
2023-04-24T03:30:04.337Z,1.10
2023-04-24T03:32:31.326Z,1.23
2023-04-24T03:34:57.904Z,1.07
2023-04-24T03:37:24.435Z,1.07
2023-04-24T03:39:50.994Z,1.10
2023-04-24T03:42:17.510Z,1.10
2023-04-24T03:44:44.043Z,1.27
2023-04-24T03:47:10.556Z,1.10
2023-04-24T03:49:37.068Z,1.00
2023-04-24T03:52:03.696Z,1.17
2023-04-24T03:54:30.246Z,1.20
2023-04-24T03:56:56.848Z,1.30
2023-04-24T03:59:23.409Z,1.10
2023-04-24T04:01:50.041Z,1.07
2023-04-24T04:04:16.671Z,1.10
2023-04-24T04:06:44.979Z,1.20
2023-04-24T04:09:11.873Z,1.27
2023-04-24T04:11:38.457Z,1.20
2023-04-24T04:14:05.066Z,1.10
2023-04-24T04:16:31.768Z,1.30
2023-04-24T04:18:58.323Z,1.10
2023-04-24T04:21:25.050Z,1.00
2023-04-24T04:23:51.573Z,1.20
2023-04-24T04:26:20.018Z,1.07
2023-04-24T04:28:46.566Z,1.20
2023-04-24T04:31:13.891Z,1.10
2023-04-24T04:33:40.689Z,1.20
2023-04-24T04:36:07.240Z,1.10
2023-04-24T04:38:34.471Z,1.20
2023-04-24T04:41:01.099Z,1.10
2023-04-24T04:43:27.649Z,1.10
2023-04-24T04:45:55.561Z,1.20
2023-04-24T04:48:22.143Z,1.03
2023-04-24T04:50:48.748Z,1.10
2023-04-24T04:53:15.264Z,1.10
2023-04-24T04:55:41.770Z,1.10
2023-04-24T04:58:08.279Z,1.10
2023-04-24T05:00:36.799Z,1.10
2023-04-24T05:03:19.278Z,1.10
2023-04-24T05:05:47.053Z,1.00
2023-04-24T05:08:23.997Z,1.00
2023-04-24T05:10:53.453Z,1.20
2023-04-24T05:13:28.396Z,1.10
2023-04-24T05:16:02.632Z,1.27
2023-04-24T05:18:29.152Z,1.10
2023-04-24T05:20:55.908Z,1.30
2023-04-24T05:23:22.446Z,1.23
2023-04-24T05:25:49.031Z,1.20
2023-04-24T05:28:16.448Z,1.00
2023-04-24T05:30:42.959Z,1.30
2023-04-24T05:33:10.264Z,1.40
2023-04-24T05:35:36.848Z,1.27
2023-04-24T05:38:03.477Z,1.17
2023-04-24T05:40:30.038Z,1.10
2023-04-24T05:42:56.615Z,1.20
2023-04-24T05:45:23.161Z,1.30
2023-04-24T05:47:49.890Z,1.17
2023-04-24T05:50:16.871Z,1.30
2023-04-24T05:52:43.359Z,1.10
2023-04-24T05:55:09.865Z,1.20
2023-04-24T05:57:36.410Z,1.10
2023-04-24T06:00:03.175Z,1.30
2023-04-24T06:02:33.401Z,1.20
2023-04-24T06:05:00.821Z,1.10
2023-04-24T06:07:27.508Z,1.47
2023-04-24T06:09:54.046Z,1.20
2023-04-24T06:12:20.577Z,1.20
2023-04-24T06:14:47.073Z,1.30
2023-04-24T06:17:13.581Z,1.33
2023-04-24T06:19:40.133Z,1.33
2023-04-24T06:22:07.642Z,1.30
2023-04-24T06:24:35.417Z,1.20
2023-04-24T06:27:02.312Z,1.30
2023-04-24T06:29:28.958Z,1.13
2023-04-24T06:31:55.709Z,1.30
2023-04-24T06:34:22.292Z,1.27
2023-04-24T06:36:48.890Z,1.40
2023-04-24T06:39:15.685Z,1.30
2023-04-24T06:41:42.270Z,1.30
2023-04-24T06:44:08.790Z,1.30
2023-04-24T06:46:35.536Z,1.23
2023-04-24T06:49:02.164Z,1.20
2023-04-24T06:51:29.009Z,1.10
2023-04-24T06:53:57.005Z,1.30
2023-04-24T06:56:23.634Z,1.10
2023-04-24T06:58:50.157Z,1.30
2023-04-24T07:01:16.716Z,1.30
2023-04-24T07:03:43.442Z,1.33
2023-04-24T07:06:11.151Z,1.10
2023-04-24T07:08:38.093Z,1.10
2023-04-24T07:11:04.647Z,1.30
2023-04-24T07:13:31.408Z,1.23
2023-04-24T07:15:58.074Z,0.93
2023-04-24T07:18:24.874Z,1.40
2023-04-24T07:20:51.719Z,1.10
2023-04-24T07:23:18.949Z,1.20
2023-04-24T07:25:45.622Z,1.20
2023-04-24T07:28:12.149Z,1.30
2023-04-24T07:30:38.734Z,1.10
2023-04-24T07:33:05.317Z,1.20
2023-04-24T07:35:31.947Z,1.10
2023-04-24T07:37:58.529Z,1.10
2023-04-24T07:40:25.100Z,1.20
2023-04-24T07:42:51.856Z,1.10
2023-04-24T07:45:18.423Z,1.10
2023-04-24T07:47:46.598Z,1.13
2023-04-24T07:50:13.938Z,1.10
2023-04-24T07:52:40.541Z,1.20
2023-04-24T07:55:08.024Z,1.17
2023-04-24T07:57:34.628Z,1.30
2023-04-24T08:00:01.215Z,1.07
2023-04-24T08:02:28.239Z,1.30
2023-04-24T08:04:55.572Z,1.10
2023-04-24T08:07:22.300Z,1.20
2023-04-24T08:09:48.813Z,1.20
2023-04-24T08:12:15.432Z,1.03
2023-04-24T08:14:42.252Z,1.13
2023-04-24T08:17:08.965Z,1.20
2023-04-24T08:19:35.617Z,1.20
2023-04-24T08:22:02.156Z,1.30
2023-04-24T08:24:28.668Z,1.10
2023-04-24T08:26:57.726Z,1.10
2023-04-24T08:29:24.347Z,1.30
2023-04-24T08:31:51.010Z,1.10
2023-04-24T08:34:17.638Z,1.30
2023-04-24T08:36:47.594Z,1.33
2023-04-24T08:39:14.565Z,1.27
2023-04-24T08:41:44.108Z,1.03
2023-04-24T08:44:11.477Z,1.10
2023-04-24T08:46:38.511Z,1.30
2023-04-24T08:49:05.118Z,1.17
2023-04-24T08:51:32.077Z,1.10
2023-04-24T08:53:58.902Z,1.30
2023-04-24T08:56:25.444Z,1.20
2023-04-24T08:58:52.302Z,1.27
2023-04-24T09:01:20.508Z,1.20
2023-04-24T09:03:50.970Z,1.67
2023-04-24T09:06:18.637Z,1.33
2023-04-24T09:08:45.207Z,1.53
2023-04-24T09:11:11.898Z,1.40
2023-04-24T09:13:38.673Z,1.57
2023-04-24T09:16:05.489Z,1.50
2023-04-24T09:18:32.008Z,1.60
2023-04-24T09:21:07.508Z,1.60
2023-04-24T09:23:34.238Z,1.20
2023-04-24T09:26:01.630Z,1.30
2023-04-24T09:28:38.292Z,1.20
2023-04-24T09:31:15.004Z,1.30
2023-04-24T09:33:41.700Z,1.17
2023-04-24T09:36:08.250Z,1.30
2023-04-24T09:38:38.334Z,1.40
2023-04-24T09:41:08.513Z,1.47
2023-04-24T09:43:36.127Z,1.57
2023-04-24T09:46:09.668Z,1.23
2023-04-24T09:48:37.290Z,1.30
2023-04-24T09:51:04.808Z,1.20
2023-04-24T09:53:31.459Z,1.27
2023-04-24T09:56:03.785Z,1.00
2023-04-24T09:58:30.774Z,1.40
2023-04-24T10:00:57.778Z,1.30
2023-04-24T10:03:30.214Z,0.90
2023-04-24T10:06:00.299Z,1.17
2023-04-24T10:08:27.301Z,1.00
2023-04-24T10:10:53.873Z,1.60
2023-04-24T10:13:20.373Z,1.10
2023-04-24T10:15:47.678Z,1.20
2023-04-24T10:18:14.282Z,1.13
2023-04-24T10:20:41.274Z,1.20
2023-04-24T10:23:07.918Z,1.17
2023-04-24T10:25:36.198Z,1.30
2023-04-24T10:28:02.814Z,1.20
2023-04-24T10:30:37.736Z,1.10
2023-04-24T10:33:05.405Z,1.40
2023-04-24T10:35:33.162Z,1.20
2023-04-24T10:38:14.033Z,1.00
2023-04-24T10:40:40.902Z,1.30
2023-04-24T10:43:10.534Z,1.60
2023-04-24T10:45:37.078Z,1.10
2023-04-24T10:48:06.094Z,1.20
2023-04-24T10:50:51.847Z,1.30
2023-04-24T10:53:19.612Z,1.40
2023-04-24T10:55:53.441Z,1.20
2023-04-24T10:58:23.507Z,1.40
2023-04-24T11:01:00.054Z,1.30
2023-04-24T11:03:28.266Z,1.30
2023-04-24T11:05:58.989Z,1.40
2023-04-24T11:08:30.098Z,1.30
2023-04-24T11:10:59.301Z,1.47
2023-04-24T11:13:27.033Z,1.43
2023-04-24T11:16:16.114Z,1.50
2023-04-24T11:18:46.588Z,1.40
2023-04-24T11:21:23.038Z,1.40
2023-04-24T11:23:49.523Z,1.20
2023-04-24T11:26:29.056Z,1.23
2023-04-24T11:28:55.641Z,1.40
2023-04-24T11:31:49.697Z,1.40
2023-04-24T11:34:17.295Z,1.27
2023-04-24T11:36:44.664Z,1.60
2023-04-24T11:39:12.189Z,1.23
2023-04-24T11:41:38.819Z,1.20
2023-04-24T11:44:09.979Z,1.20
2023-04-24T11:46:39.050Z,1.47
2023-04-24T11:49:06.632Z,1.40
2023-04-24T11:51:43.947Z,1.20
2023-04-24T11:54:17.751Z,1.30
2023-04-24T11:56:48.269Z,1.43
2023-04-24T11:59:15.456Z,1.27
2023-04-24T12:01:46.471Z,1.60
2023-04-24T12:04:13.717Z,1.50
2023-04-24T12:06:40.585Z,1.77
2023-04-24T12:09:17.827Z,1.57
2023-04-24T12:11:54.787Z,1.43
2023-04-24T12:14:21.275Z,1.70
2023-04-24T12:16:49.498Z,1.90
2023-04-24T12:19:22.557Z,1.70
2023-04-24T12:22:06.096Z,1.63
2023-04-24T12:24:32.702Z,2.00
2023-04-24T12:26:59.412Z,1.63
2023-04-24T12:29:26.132Z,1.80
2023-04-24T12:31:52.902Z,1.80
2023-04-24T12:34:23.094Z,1.67
2023-04-24T12:36:49.632Z,1.80
2023-04-24T12:39:20.473Z,1.80
2023-04-24T12:42:00.292Z,2.10
2023-04-24T12:44:35.402Z,2.30
2023-04-24T12:47:02.537Z,2.40
2023-04-24T12:49:31.324Z,2.10
2023-04-24T12:51:57.870Z,2.03
2023-04-24T12:54:24.419Z,2.23
2023-04-24T12:56:51.037Z,2.30
2023-04-24T12:59:17.536Z,2.40
2023-04-24T13:01:44.264Z,2.63
2023-04-24T13:04:11.077Z,2.10
2023-04-24T13:06:37.835Z,2.37
2023-04-24T13:09:04.485Z,2.33
2023-04-24T13:11:30.981Z,2.20
2023-04-24T13:13:57.480Z,2.20
2023-04-24T13:16:24.496Z,2.43
2023-04-24T13:18:51.229Z,2.30
2023-04-24T13:21:17.705Z,2.10
2023-04-24T13:23:44.478Z,2.13
2023-04-24T13:26:11.571Z,2.60
2023-04-24T13:28:39.301Z,2.40
2023-04-24T13:31:05.953Z,2.10
2023-04-24T13:33:32.472Z,2.27
2023-04-24T13:35:58.962Z,2.30
2023-04-24T13:38:25.541Z,2.10
2023-04-24T13:40:52.100Z,2.30
2023-04-24T13:43:18.587Z,1.93
2023-04-24T13:45:45.345Z,2.20
2023-04-24T13:48:12.022Z,2.50
2023-04-24T13:50:38.755Z,2.23
2023-04-24T13:53:05.391Z,2.00
2023-04-24T13:55:31.994Z,2.40
2023-04-24T13:57:58.556Z,2.10
2023-04-24T14:00:25.076Z,2.00
2023-04-24T14:02:51.727Z,2.37
2023-04-24T14:05:19.292Z,2.07
2023-04-24T14:07:45.831Z,2.40
2023-04-24T14:10:12.385Z,1.90
2023-04-24T14:12:39.000Z,1.97
2023-04-24T14:15:06.195Z,2.33
2023-04-24T14:17:32.761Z,2.23
2023-04-24T14:20:01.404Z,2.00
2023-04-24T14:22:28.080Z,2.03
2023-04-24T14:24:54.609Z,2.53
2023-04-24T14:27:21.276Z,2.30
2023-04-24T14:29:47.833Z,2.40
2023-04-24T14:32:16.047Z,2.23
2023-04-24T14:34:42.801Z,2.40
2023-04-24T14:37:09.384Z,2.03
2023-04-24T14:39:35.951Z,2.40
2023-04-24T14:42:02.676Z,2.50
2023-04-24T14:44:29.228Z,2.30
2023-04-24T14:46:56.043Z,2.40
2023-04-24T14:49:24.055Z,2.50
2023-04-24T14:51:50.540Z,2.63
2023-04-24T14:54:17.107Z,2.67
2023-04-24T14:56:45.309Z,2.23
2023-04-24T14:59:11.920Z,2.67
2023-04-24T15:01:38.459Z,2.40
2023-04-24T15:04:05.109Z,2.40
2023-04-24T15:06:32.847Z,2.60
2023-04-24T15:08:59.476Z,2.10
2023-04-24T15:11:26.002Z,2.57
2023-04-24T15:13:52.535Z,2.53
2023-04-24T15:16:19.164Z,2.67
2023-04-24T15:18:45.983Z,2.60
2023-04-24T15:21:13.821Z,2.37
2023-04-24T15:23:40.404Z,2.80
2023-04-24T15:26:06.928Z,2.40
2023-04-24T15:28:33.430Z,2.40
2023-04-24T15:31:00.568Z,2.87
2023-04-24T15:33:27.139Z,2.53
2023-04-24T15:35:53.681Z,2.53
2023-04-24T15:38:20.312Z,2.87
2023-04-24T15:40:46.891Z,2.43
2023-04-24T15:43:13.450Z,2.87
2023-04-24T15:45:39.987Z,2.70
2023-04-24T15:48:06.608Z,2.70
2023-04-24T15:50:33.182Z,2.57
2023-04-24T15:52:59.722Z,2.93
2023-04-24T15:55:26.252Z,2.67
2023-04-24T15:57:52.830Z,2.80
2023-04-24T16:00:19.731Z,3.40
2023-04-24T16:02:46.441Z,3.27
2023-04-24T16:05:13.132Z,2.90
2023-04-24T16:07:40.354Z,3.00
2023-04-24T16:10:07.294Z,3.00
2023-04-24T16:12:33.784Z,2.87
2023-04-24T16:15:00.285Z,3.00
2023-04-24T16:17:26.913Z,2.97
2023-04-24T16:19:53.522Z,3.07
2023-04-24T16:22:20.126Z,3.10
2023-04-24T16:24:48.262Z,2.77
2023-04-24T16:27:15.506Z,3.00
2023-04-24T16:29:42.032Z,2.73
2023-04-24T16:32:09.349Z,2.70
2023-04-24T16:34:35.853Z,2.60
2023-04-24T16:37:02.404Z,2.83
2023-04-24T16:39:28.902Z,3.10
2023-04-24T16:41:56.737Z,3.33
2023-04-24T16:44:24.985Z,3.03
2023-04-24T16:46:51.644Z,2.97
2023-04-24T16:49:18.190Z,3.10
2023-04-24T16:51:45.405Z,2.73
2023-04-24T16:54:11.956Z,3.00
2023-04-24T16:56:38.526Z,3.00
2023-04-24T16:59:05.123Z,2.87
2023-04-24T17:01:31.649Z,2.93
2023-04-24T17:03:58.375Z,3.10
2023-04-24T17:06:24.930Z,3.07
2023-04-24T17:08:51.481Z,2.90
2023-04-24T17:11:17.986Z,2.87
2023-04-24T17:13:44.582Z,3.27
2023-04-24T17:16:11.237Z,2.93
2023-04-24T17:18:38.352Z,2.80
2023-04-24T17:21:05.326Z,3.40
2023-04-24T17:23:31.877Z,3.23
2023-04-24T17:25:58.436Z,2.93
2023-04-24T17:28:29.781Z,2.80
2023-04-24T17:30:58.162Z,2.93
2023-04-24T17:33:25.914Z,3.30
2023-04-24T17:35:52.411Z,2.57
2023-04-24T17:38:19.228Z,2.80
2023-04-24T17:40:52.761Z,2.80
2023-04-24T17:43:22.546Z,3.13
2023-04-24T17:45:50.342Z,2.70
2023-04-24T17:48:17.529Z,2.63
2023-04-24T17:50:44.132Z,2.80
2023-04-24T17:53:13.644Z,2.80
2023-04-24T17:55:40.448Z,3.07
2023-04-24T17:58:07.049Z,2.70
2023-04-24T18:00:33.689Z,2.87
2023-04-24T18:03:03.817Z,2.70
2023-04-24T18:05:31.398Z,2.70
2023-04-24T18:07:57.956Z,2.90
2023-04-24T18:10:25.158Z,3.13
2023-04-24T18:12:52.057Z,3.00
2023-04-24T18:15:19.043Z,3.03
2023-04-24T18:17:45.732Z,3.00
2023-04-24T18:20:13.032Z,2.80
2023-04-24T18:22:39.759Z,2.90
2023-04-24T18:25:06.575Z,2.77
2023-04-24T18:27:33.408Z,2.83
2023-04-24T18:29:59.906Z,3.03
2023-04-24T18:32:27.152Z,2.73
2023-04-24T18:34:53.760Z,2.80
2023-04-24T18:37:20.453Z,2.43
2023-04-24T18:39:47.010Z,2.47
2023-04-24T18:42:13.473Z,2.93
2023-04-24T18:44:41.262Z,2.70
2023-04-24T18:47:08.304Z,2.67
2023-04-24T18:49:34.848Z,2.70
2023-04-24T18:52:01.948Z,2.67
2023-04-24T18:54:28.558Z,2.57
2023-04-24T18:56:55.239Z,2.60
2023-04-24T18:59:21.843Z,2.60
2023-04-24T19:01:48.675Z,3.10
2023-04-24T19:04:15.996Z,3.10
2023-04-24T19:06:42.590Z,3.00
2023-04-24T19:09:09.118Z,2.37
2023-04-24T19:11:35.676Z,2.30
2023-04-24T19:14:05.676Z,2.60
2023-04-24T19:16:32.296Z,2.27
2023-04-24T19:18:58.821Z,2.80
2023-04-24T19:21:25.332Z,2.40
2023-04-24T19:23:56.704Z,2.50
2023-04-24T19:26:24.002Z,2.50
2023-04-24T19:28:50.974Z,2.77
2023-04-24T19:31:17.655Z,2.47
2023-04-24T19:33:48.277Z,2.27
2023-04-24T19:36:17.606Z,2.57
2023-04-24T19:38:47.566Z,2.60
2023-04-24T19:41:14.224Z,2.60
2023-04-24T19:43:40.769Z,2.60
2023-04-24T19:46:07.526Z,2.40
2023-04-24T19:48:34.216Z,2.90
2023-04-24T19:51:01.384Z,2.53
2023-04-24T19:53:28.344Z,2.57
2023-04-24T19:55:55.390Z,2.90
2023-04-24T19:58:21.878Z,2.70
2023-04-24T20:00:48.420Z,2.47
2023-04-24T20:03:25.471Z,2.60
2023-04-24T20:05:58.320Z,2.50
2023-04-24T20:08:24.852Z,2.43
2023-04-24T20:10:52.299Z,2.10
2023-04-24T20:13:18.884Z,2.50
2023-04-24T20:15:45.776Z,2.10
2023-04-24T20:18:12.298Z,2.37
2023-04-24T20:20:41.383Z,2.80
2023-04-24T20:23:07.874Z,2.40
2023-04-24T20:25:35.720Z,2.73
2023-04-24T20:28:02.256Z,2.30
2023-04-24T20:30:28.733Z,2.80
2023-04-24T20:32:55.337Z,2.43
2023-04-24T20:35:21.914Z,2.70
2023-04-24T20:37:48.566Z,2.63
2023-04-24T20:40:15.101Z,2.70
2023-04-24T20:42:41.636Z,2.80
2023-04-24T20:45:08.614Z,2.67
2023-04-24T20:47:36.720Z,2.27
2023-04-24T20:50:04.096Z,2.60
2023-04-24T20:52:30.654Z,2.63
2023-04-24T20:54:57.210Z,2.50
2023-04-24T20:57:23.770Z,2.30
2023-04-24T20:59:50.296Z,2.37
2023-04-24T21:02:16.888Z,2.50
2023-04-24T21:04:43.532Z,2.47
2023-04-24T21:07:10.281Z,2.20
2023-04-24T21:09:36.784Z,2.43
2023-04-24T21:12:03.376Z,2.13
2023-04-24T21:14:29.950Z,2.37
2023-04-24T21:16:58.350Z,2.50
2023-04-24T21:19:25.024Z,2.40
2023-04-24T21:21:51.492Z,2.53
2023-04-24T21:24:18.043Z,2.50
2023-04-24T21:26:44.603Z,2.20
2023-04-24T21:29:11.505Z,2.30
2023-04-24T21:31:38.111Z,2.20
2023-04-24T21:34:04.679Z,2.33
2023-04-24T21:36:32.736Z,2.20
2023-04-24T21:38:59.369Z,2.30
2023-04-24T21:41:25.870Z,2.43
2023-04-24T21:43:52.749Z,2.23
2023-04-24T21:46:19.574Z,2.17
2023-04-24T21:48:46.137Z,2.20
2023-04-24T21:51:12.987Z,1.77
2023-04-24T21:53:39.568Z,2.17
2023-04-24T21:56:06.177Z,1.90
2023-04-24T21:58:32.678Z,2.27
2023-04-24T22:00:59.246Z,2.10
2023-04-24T22:03:25.983Z,1.80
2023-04-24T22:05:52.646Z,2.10
2023-04-24T22:08:19.161Z,1.90
2023-04-24T22:10:46.064Z,2.10
2023-04-24T22:13:12.622Z,1.90
2023-04-24T22:15:39.129Z,2.37
2023-04-24T22:18:06.633Z,1.90
2023-04-24T22:20:33.506Z,2.33
2023-04-24T22:23:00.060Z,1.90
2023-04-24T22:25:26.865Z,1.97
2023-04-24T22:27:53.425Z,2.17
2023-04-24T22:30:20.070Z,2.00
2023-04-24T22:32:46.854Z,2.20
2023-04-24T22:35:13.454Z,1.97
2023-04-24T22:37:39.964Z,1.97
2023-04-24T22:40:08.439Z,1.93
2023-04-24T22:42:34.967Z,2.40
2023-04-24T22:45:01.483Z,1.93
2023-04-24T22:47:27.997Z,1.83
2023-04-24T22:49:55.184Z,2.07
2023-04-24T22:52:21.748Z,2.00
2023-04-24T22:54:48.303Z,2.10
2023-04-24T22:57:15.091Z,2.00
2023-04-24T22:59:41.640Z,1.93
2023-04-24T23:02:08.289Z,1.90
2023-04-24T23:04:35.044Z,2.13
2023-04-24T23:07:01.639Z,1.83
2023-04-24T23:09:28.172Z,2.20
2023-04-24T23:11:54.908Z,1.90
2023-04-24T23:14:21.861Z,2.10
2023-04-24T23:16:48.379Z,1.80
2023-04-24T23:19:14.936Z,1.77
2023-04-24T23:21:41.405Z,2.07
2023-04-24T23:24:08.386Z,1.87
2023-04-24T23:26:34.908Z,1.70
2023-04-24T23:29:01.458Z,2.00
2023-04-24T23:31:27.993Z,1.90
2023-04-24T23:33:54.551Z,2.00
2023-04-24T23:36:21.383Z,1.90
2023-04-24T23:38:50.579Z,1.63
2023-04-24T23:41:18.284Z,1.90
2023-04-24T23:43:44.839Z,2.03
2023-04-24T23:46:11.550Z,1.90
2023-04-24T23:48:38.145Z,1.73
2023-04-24T23:51:04.832Z,1.70
2023-04-24T23:53:31.467Z,1.77
2023-04-24T23:55:57.986Z,1.83
2023-04-24T23:58:24.676Z,1.80
